createdAt,value
2022-11-25T00:01:31.792Z,7.13
2022-11-25T00:03:58.647Z,7.43
2022-11-25T00:06:26.420Z,8.40
2022-11-25T00:08:57.308Z,8.10
2022-11-25T00:11:23.630Z,7.05
2022-11-25T00:13:50.003Z,4.88
2022-11-25T00:16:17.652Z,4.40
2022-11-25T00:18:45.081Z,4.15
2022-11-25T00:21:13.133Z,4.93
2022-11-25T00:23:39.863Z,5.40
2022-11-25T00:26:10.020Z,5.20
2022-11-25T00:28:36.636Z,5.32
2022-11-25T00:31:07.252Z,4.72
2022-11-25T00:33:33.628Z,4.68
2022-11-25T00:36:00.936Z,4.50
2022-11-25T00:38:27.218Z,5.13
2022-11-25T00:41:12.455Z,4.88
2022-11-25T00:43:57.620Z,4.38
2022-11-25T00:46:24.059Z,4.95
2022-11-25T00:48:50.363Z,4.53
2022-11-25T00:51:16.765Z,4.25
2022-11-25T00:53:43.102Z,4.82
2022-11-25T00:56:15.675Z,4.15
2022-11-25T00:58:42.418Z,4.75
2022-11-25T01:01:09.231Z,3.97
2022-11-25T01:03:38.987Z,4.95
2022-11-25T01:06:06.492Z,5.10
2022-11-25T01:08:34.844Z,4.45
2022-11-25T01:11:02.031Z,5.47
2022-11-25T01:13:28.639Z,4.78
2022-11-25T01:15:55.485Z,4.97
2022-11-25T01:18:23.128Z,4.10
2022-11-25T01:20:49.443Z,4.82
2022-11-25T01:23:15.902Z,5.80
2022-11-25T01:25:42.210Z,6.88
2022-11-25T01:28:08.612Z,5.57
2022-11-25T01:30:39.731Z,5.75
2022-11-25T01:33:07.303Z,4.38
2022-11-25T01:35:36.470Z,4.90
2022-11-25T01:38:02.802Z,4.75
2022-11-25T01:40:29.122Z,4.47
2022-11-25T01:42:55.528Z,5.07
2022-11-25T01:45:28.749Z,4.90
2022-11-25T01:47:58.643Z,4.95
2022-11-25T01:50:26.643Z,4.80
2022-11-25T01:52:54.479Z,5.93
2022-11-25T01:55:24.380Z,4.50
2022-11-25T01:57:53.052Z,4.95
2022-11-25T02:00:19.824Z,4.90
2022-11-25T02:02:49.801Z,5.88
2022-11-25T02:05:36.507Z,6.60
2022-11-25T02:08:04.541Z,8.05
2022-11-25T02:10:32.027Z,5.97
2022-11-25T02:12:58.983Z,6.60
2022-11-25T02:15:25.552Z,6.05
2022-11-25T02:17:51.963Z,5.82
2022-11-25T02:20:19.795Z,6.15
2022-11-25T02:22:52.227Z,5.78
2022-11-25T02:25:18.551Z,6.55
2022-11-25T02:27:46.041Z,6.32
2022-11-25T02:30:13.598Z,6.78
2022-11-25T02:32:43.955Z,6.20
2022-11-25T02:35:29.407Z,6.00
2022-11-25T02:37:58.823Z,6.10
2022-11-25T02:40:25.743Z,6.85
2022-11-25T02:42:53.296Z,6.38
2022-11-25T02:45:22.700Z,7.22
2022-11-25T02:47:49.057Z,6.70
2022-11-25T02:50:15.483Z,7.45
2022-11-25T02:52:42.738Z,8.23
2022-11-25T02:55:09.688Z,8.98
2022-11-25T02:57:36.144Z,9.43
2022-11-25T03:00:03.644Z,10.02
2022-11-25T03:02:30.229Z,9.95
2022-11-25T03:04:56.623Z,10.00
2022-11-25T03:07:22.956Z,9.98
2022-11-25T03:09:49.407Z,9.88
2022-11-25T03:12:18.788Z,9.30
2022-11-25T03:14:45.210Z,9.13
2022-11-25T03:17:11.865Z,7.72
2022-11-25T03:19:38.920Z,8.02
2022-11-25T03:22:05.282Z,7.38
2022-11-25T03:24:32.148Z,6.82
2022-11-25T03:26:58.463Z,7.60
2022-11-25T03:29:24.964Z,6.40
2022-11-25T03:31:52.090Z,6.45
2022-11-25T03:34:20.026Z,7.80
2022-11-25T03:36:46.433Z,9.18
2022-11-25T03:39:12.839Z,9.45
2022-11-25T03:41:39.239Z,10.35
2022-11-25T03:44:05.777Z,10.25
2022-11-25T03:46:32.707Z,10.98
2022-11-25T03:49:01.747Z,11.82
2022-11-25T03:51:28.848Z,11.68
2022-11-25T03:53:55.286Z,11.40
2022-11-25T03:56:23.130Z,11.15
2022-11-25T03:58:50.111Z,10.23
2022-11-25T04:01:17.643Z,10.57
2022-11-25T04:03:45.355Z,11.30
2022-11-25T04:06:11.879Z,12.90
2022-11-25T04:08:39.393Z,14.23
2022-11-25T04:11:07.384Z,14.73
2022-11-25T04:13:38.929Z,14.23
2022-11-25T04:16:05.407Z,15.45
2022-11-25T04:18:32.024Z,15.82
2022-11-25T04:20:59.456Z,16.02
2022-11-25T04:23:25.803Z,16.40
2022-11-25T04:26:00.028Z,16.33
2022-11-25T04:28:33.116Z,16.13
2022-11-25T04:30:59.618Z,16.70
2022-11-25T04:33:26.615Z,15.57
2022-11-25T04:35:52.954Z,10.82
2022-11-25T04:38:20.190Z,9.35
2022-11-25T04:40:47.845Z,8.60
2022-11-25T04:43:18.062Z,9.18
2022-11-25T04:46:12.912Z,8.73
2022-11-25T04:48:39.010Z,7.53
2022-11-25T04:51:05.547Z,6.93
2022-11-25T04:53:32.277Z,6.88
2022-11-25T04:55:58.598Z,5.97
2022-11-25T04:58:43.748Z,6.43
2022-11-25T05:01:10.267Z,6.28
2022-11-25T05:03:44.950Z,6.65
2022-11-25T05:06:14.771Z,5.55
2022-11-25T05:08:42.157Z,5.85
2022-11-25T05:11:09.804Z,5.57
2022-11-25T05:13:36.303Z,5.43
2022-11-25T05:16:02.710Z,5.85
2022-11-25T05:18:30.087Z,5.50
2022-11-25T05:21:00.312Z,5.63
2022-11-25T05:23:28.083Z,5.63
2022-11-25T05:25:58.857Z,5.55
2022-11-25T05:28:30.296Z,6.07
2022-11-25T05:30:57.760Z,5.50
2022-11-25T05:33:24.886Z,6.43
2022-11-25T05:36:01.708Z,6.00
2022-11-25T05:41:06.813Z,5.82
2022-11-25T05:43:33.904Z,5.88
2022-11-25T05:46:04.223Z,6.18
2022-11-25T05:48:30.939Z,6.18
2022-11-25T05:50:59.544Z,6.95
2022-11-25T05:53:27.637Z,6.45
2022-11-25T05:55:56.605Z,7.28
2022-11-25T05:58:41.682Z,7.03
2022-11-25T06:01:09.819Z,6.60
2022-11-25T06:03:37.228Z,7.32
2022-11-25T06:06:04.048Z,6.68
2022-11-25T06:08:31.429Z,7.10
2022-11-25T06:10:58.000Z,7.25
2022-11-25T06:13:24.803Z,6.95
2022-11-25T06:15:51.476Z,6.55
2022-11-25T06:18:19.033Z,6.57
2022-11-25T06:20:45.847Z,7.45
2022-11-25T06:23:12.215Z,7.25
2022-11-25T06:25:39.560Z,7.78
2022-11-25T06:28:13.884Z,7.10
2022-11-25T06:30:45.890Z,6.80
2022-11-25T06:33:26.339Z,6.93
2022-11-25T06:35:54.225Z,8.13
2022-11-25T06:38:20.622Z,7.63
2022-11-25T06:40:46.961Z,7.25
2022-11-25T06:43:13.252Z,6.70
2022-11-25T06:45:39.535Z,7.60
2022-11-25T06:48:05.854Z,8.10
2022-11-25T06:50:32.239Z,8.63
2022-11-25T06:53:00.312Z,8.23
2022-11-25T06:55:26.617Z,8.50
2022-11-25T06:57:59.069Z,8.98
2022-11-25T07:00:34.664Z,8.30
2022-11-25T07:03:01.040Z,9.32
2022-11-25T07:05:27.414Z,9.55
2022-11-25T07:07:53.806Z,8.73
2022-11-25T07:10:20.103Z,8.80
2022-11-25T07:12:46.403Z,9.00
2022-11-25T07:15:12.744Z,9.85
2022-11-25T07:17:39.093Z,9.52
2022-11-25T07:20:05.787Z,9.82
2022-11-25T07:22:32.193Z,9.25
2022-11-25T07:24:58.605Z,10.43
2022-11-25T07:27:24.899Z,9.68
2022-11-25T07:30:10.223Z,9.75
2022-11-25T07:32:37.550Z,9.88
2022-11-25T07:35:03.993Z,9.95
2022-11-25T07:37:30.731Z,10.15
2022-11-25T07:39:57.210Z,10.57
2022-11-25T07:42:23.597Z,9.85
2022-11-25T07:44:49.915Z,11.02
2022-11-25T07:47:51.424Z,10.43
2022-11-25T07:50:17.784Z,11.57
2022-11-25T07:52:44.194Z,11.43
2022-11-25T07:55:10.702Z,11.57
2022-11-25T07:57:37.100Z,11.68
2022-11-25T08:00:04.148Z,10.95
2022-11-25T08:02:38.238Z,11.25
2022-11-25T08:05:04.740Z,11.88
2022-11-25T08:07:36.317Z,12.48
2022-11-25T08:10:03.398Z,11.77
2022-11-25T08:12:31.792Z,12.80
2022-11-25T08:14:58.105Z,13.10
2022-11-25T08:17:24.459Z,13.15
2022-11-25T08:19:50.781Z,13.13
2022-11-25T08:22:17.100Z,14.25
2022-11-25T08:24:43.522Z,13.13
2022-11-25T08:27:09.861Z,14.07
2022-11-25T08:29:36.394Z,13.88
2022-11-25T08:32:07.409Z,14.15
2022-11-25T08:37:04.174Z,14.80
2022-11-25T08:42:17.348Z,16.65
2022-11-25T08:44:43.666Z,15.60
2022-11-25T08:47:10.159Z,15.48
2022-11-25T08:49:41.155Z,16.00
2022-11-25T08:52:09.079Z,15.70
2022-11-25T08:54:35.533Z,15.50
2022-11-25T08:57:02.028Z,14.20
2022-11-25T08:59:28.383Z,15.20
2022-11-25T09:01:55.532Z,15.13
2022-11-25T09:04:23.177Z,14.63
2022-11-25T09:06:49.552Z,14.07
2022-11-25T09:09:16.082Z,14.02
2022-11-25T09:11:42.532Z,15.43
2022-11-25T09:14:08.966Z,14.95
2022-11-25T09:16:35.359Z,16.15
2022-11-25T09:19:01.969Z,14.45
2022-11-25T09:21:28.406Z,14.32
2022-11-25T09:23:57.806Z,15.50
2022-11-25T09:26:28.515Z,14.88
2022-11-25T09:28:55.261Z,14.02
2022-11-25T09:31:22.507Z,14.73
2022-11-25T09:33:49.249Z,14.77
2022-11-25T09:36:16.457Z,15.45
2022-11-25T09:38:45.778Z,14.43
2022-11-25T09:41:16.266Z,14.77
2022-11-25T09:44:10.694Z,15.20
2022-11-25T09:46:43.371Z,15.95
2022-11-25T09:49:28.056Z,15.50
2022-11-25T09:52:00.495Z,16.23
2022-11-25T09:54:29.956Z,16.50
2022-11-25T09:57:03.208Z,14.32
2022-11-25T09:59:35.121Z,15.73
2022-11-25T10:02:03.461Z,14.38
2022-11-25T10:04:36.392Z,15.23
2022-11-25T10:07:03.984Z,14.48
2022-11-25T10:09:32.473Z,14.30
2022-11-25T10:12:01.967Z,14.48
2022-11-25T10:14:43.755Z,13.15
2022-11-25T10:17:10.043Z,13.55
2022-11-25T10:19:43.553Z,13.95
2022-11-25T10:22:22.610Z,13.43
2022-11-25T10:24:51.184Z,13.00
2022-11-25T10:27:36.436Z,12.93
2022-11-25T10:30:12.691Z,12.13
2022-11-25T10:32:45.025Z,12.25
2022-11-25T10:35:18.809Z,11.68
2022-11-25T10:37:45.592Z,10.70
2022-11-25T10:40:16.116Z,9.73
2022-11-25T10:42:42.564Z,9.18
2022-11-25T10:45:10.235Z,8.48
2022-11-25T10:47:55.385Z,8.60
2022-11-25T10:50:54.307Z,8.50
2022-11-25T10:53:22.679Z,10.38
2022-11-25T10:56:00.347Z,6.40
2022-11-25T10:58:34.982Z,6.97
2022-11-25T11:01:02.427Z,5.50
2022-11-25T11:03:29.039Z,5.22
2022-11-25T11:05:55.379Z,5.50
2022-11-25T11:08:26.446Z,5.68
2022-11-25T11:11:11.691Z,6.32
2022-11-25T11:13:38.905Z,7.70
2022-11-25T11:16:20.693Z,8.52
2022-11-25T11:18:47.225Z,7.38
2022-11-25T11:21:25.020Z,7.72
2022-11-25T11:23:55.246Z,7.88
2022-11-25T11:26:27.324Z,8.18
2022-11-25T11:28:58.715Z,6.50
2022-11-25T11:31:39.268Z,6.53
2022-11-25T11:34:05.636Z,6.88
2022-11-25T11:36:31.917Z,6.22
2022-11-25T11:39:11.075Z,7.63
2022-11-25T11:41:37.404Z,5.75
2022-11-25T11:44:08.250Z,5.50
2022-11-25T11:46:51.864Z,4.60
2022-11-25T11:49:30.235Z,5.28
2022-11-25T11:52:08.182Z,4.47
2022-11-25T11:54:45.614Z,4.45
2022-11-25T11:57:11.928Z,4.70
2022-11-25T11:59:55.345Z,6.55
2022-11-25T12:02:21.669Z,5.50
2022-11-25T12:05:00.422Z,5.25
2022-11-25T12:07:32.536Z,7.35
2022-11-25T12:10:16.956Z,8.15
2022-11-25T12:15:15.298Z,7.90
2022-11-25T12:17:45.722Z,8.82
2022-11-25T12:20:15.043Z,8.27
2022-11-25T12:22:46.510Z,7.70
2022-11-25T12:25:12.895Z,7.88
2022-11-25T12:27:46.034Z,7.82
2022-11-25T12:30:17.551Z,8.13
2022-11-25T12:32:59.551Z,9.13
2022-11-25T12:35:44.434Z,8.63
2022-11-25T12:38:16.879Z,9.27
2022-11-25T12:41:02.057Z,10.75
2022-11-25T12:43:39.736Z,9.15
2022-11-25T12:46:21.442Z,10.43
2022-11-25T12:48:48.090Z,10.02
2022-11-25T12:51:31.446Z,9.52
2022-11-25T12:54:03.120Z,9.90
2022-11-25T12:56:49.742Z,9.90
2022-11-25T12:59:28.440Z,10.13
2022-11-25T13:02:18.310Z,9.23
2022-11-25T13:05:07.602Z,9.90
2022-11-25T13:08:03.294Z,8.50
2022-11-25T13:10:35.717Z,7.22
2022-11-25T13:13:21.345Z,7.65
2022-11-25T13:15:49.378Z,7.97
2022-11-25T13:18:17.739Z,6.78
2022-11-25T13:20:49.300Z,6.70
2022-11-25T13:23:18.707Z,6.50
2022-11-25T13:25:48.920Z,6.70
2022-11-25T13:28:30.635Z,6.40
2022-11-25T13:31:15.922Z,6.18
2022-11-25T13:33:42.372Z,5.32
2022-11-25T13:36:18.956Z,5.57
2022-11-25T13:38:48.773Z,4.78
2022-11-25T13:41:34.187Z,4.63
2022-11-25T13:44:02.102Z,5.70
2022-11-25T13:46:33.307Z,4.78
2022-11-25T13:48:59.848Z,4.93
2022-11-25T13:51:26.907Z,4.80
2022-11-25T13:54:06.002Z,4.40
2022-11-25T13:56:34.058Z,5.00
2022-11-25T13:59:13.836Z,4.07
2022-11-25T14:01:41.518Z,5.28
2022-11-25T14:04:08.940Z,7.00
2022-11-25T14:06:54.935Z,4.68
2022-11-25T14:09:21.325Z,6.50
2022-11-25T14:12:06.644Z,4.40
2022-11-25T14:14:51.726Z,3.95
2022-11-25T14:17:28.786Z,4.65
2022-11-25T14:20:24.486Z,5.05
2022-11-25T14:23:02.481Z,4.97
2022-11-25T14:25:32.080Z,6.30
2022-11-25T14:28:10.223Z,5.97
2022-11-25T14:30:45.812Z,6.30
2022-11-25T14:33:17.476Z,4.55
2022-11-25T14:35:47.139Z,4.75
2022-11-25T14:38:16.091Z,4.35
2022-11-25T14:40:47.103Z,3.97
2022-11-25T14:43:19.829Z,4.53
2022-11-25T14:45:46.286Z,3.55
2022-11-25T14:48:17.085Z,3.60
2022-11-25T14:50:56.596Z,3.72
2022-11-25T14:53:23.029Z,7.95
2022-11-25T14:55:49.454Z,2.90
2022-11-25T14:58:15.819Z,3.28
2022-11-25T15:00:57.544Z,3.30
2022-11-25T15:03:24.086Z,3.38
2022-11-25T15:05:57.597Z,3.75
2022-11-25T15:08:25.215Z,3.67
2022-11-25T15:10:53.421Z,3.17
2022-11-25T15:13:52.887Z,4.45
2022-11-25T15:16:24.805Z,3.58
2022-11-25T15:18:55.958Z,3.95
2022-11-25T15:21:33.042Z,3.42
2022-11-25T15:23:59.534Z,4.28
2022-11-25T15:26:26.938Z,4.43
2022-11-25T15:28:55.655Z,4.10
2022-11-25T15:31:25.264Z,6.90
2022-11-25T15:33:54.906Z,4.63
2022-11-25T15:36:22.155Z,4.57
2022-11-25T15:38:48.553Z,5.20
2022-11-25T15:41:19.962Z,5.75
2022-11-25T15:43:47.735Z,5.43
2022-11-25T15:46:14.676Z,5.32
2022-11-25T15:48:45.054Z,6.13
2022-11-25T15:51:24.482Z,5.45
2022-11-25T15:53:56.684Z,6.70
2022-11-25T15:56:25.847Z,8.80
2022-11-25T15:58:54.189Z,10.55
2022-11-25T16:01:24.373Z,9.48
2022-11-25T16:03:51.413Z,8.15
2022-11-25T16:06:27.874Z,8.43
2022-11-25T16:08:57.242Z,10.05
2022-11-25T16:11:25.478Z,13.43
2022-11-25T16:13:52.735Z,11.85
2022-11-25T16:16:19.140Z,9.15
2022-11-25T16:18:54.810Z,10.02
2022-11-25T16:21:23.131Z,10.60
2022-11-25T16:23:51.952Z,11.20
2022-11-25T16:26:28.025Z,10.43
2022-11-25T16:28:55.914Z,10.93
2022-11-25T16:31:22.582Z,11.98
2022-11-25T16:33:49.671Z,12.70
2022-11-25T16:36:16.192Z,11.77
2022-11-25T16:38:42.480Z,12.20
2022-11-25T16:41:18.604Z,11.77
2022-11-25T16:43:44.874Z,10.57
2022-11-25T16:46:13.981Z,11.27
2022-11-25T16:48:40.332Z,10.18
2022-11-25T16:51:14.612Z,10.00
2022-11-25T16:53:40.946Z,9.48
2022-11-25T16:56:11.568Z,9.15
2022-11-25T16:58:37.897Z,9.57
2022-11-25T17:01:04.286Z,11.00
2022-11-25T17:03:30.563Z,13.60
2022-11-25T17:05:56.885Z,15.55
2022-11-25T17:08:23.278Z,15.32
2022-11-25T17:10:49.736Z,16.52
2022-11-25T17:13:17.897Z,14.43
2022-11-25T17:15:45.064Z,14.27
2022-11-25T17:18:13.493Z,14.30
2022-11-25T17:20:39.775Z,14.73
2022-11-25T17:23:11.215Z,14.20
2022-11-25T17:25:37.757Z,13.85
2022-11-25T17:28:04.245Z,10.05
2022-11-25T17:30:32.349Z,9.43
2022-11-25T17:33:02.547Z,9.98
2022-11-25T17:35:28.952Z,15.20
2022-11-25T17:37:57.590Z,15.48
2022-11-25T17:40:23.909Z,14.40
2022-11-25T17:42:50.219Z,17.80
2022-11-25T17:45:18.682Z,14.80
2022-11-25T17:47:45.219Z,14.38
2022-11-25T17:50:16.247Z,13.20
2022-11-25T17:52:42.600Z,12.88
2022-11-25T17:55:09.240Z,12.32
2022-11-25T17:57:35.609Z,12.05
2022-11-25T18:00:02.084Z,10.45
2022-11-25T18:02:28.432Z,12.48
2022-11-25T18:04:55.649Z,10.60
2022-11-25T18:07:22.029Z,9.75
2022-11-25T18:09:48.456Z,5.90
2022-11-25T18:12:28.591Z,5.63
2022-11-25T18:14:55.439Z,5.43
2022-11-25T18:17:21.823Z,5.20
2022-11-25T18:19:54.597Z,5.43
2022-11-25T18:22:23.446Z,5.90
2022-11-25T18:24:50.181Z,6.97
2022-11-25T18:27:22.616Z,6.88
2022-11-25T18:29:49.380Z,8.30
2022-11-25T18:32:15.739Z,8.23
2022-11-25T18:34:42.123Z,8.75
2022-11-25T18:37:10.170Z,9.00
2022-11-25T18:39:36.462Z,9.20
2022-11-25T18:42:04.370Z,9.65
2022-11-25T18:44:30.685Z,10.32
2022-11-25T18:46:57.120Z,10.40
2022-11-25T18:49:23.926Z,7.65
2022-11-25T18:51:50.369Z,7.97
2022-11-25T18:54:16.741Z,8.45
2022-11-25T18:56:43.480Z,8.90
2022-11-25T18:59:13.930Z,8.30
2022-11-25T19:01:41.684Z,7.32
2022-11-25T19:04:16.765Z,6.13
2022-11-25T19:06:43.927Z,5.88
2022-11-25T19:09:10.275Z,5.13
2022-11-25T19:11:38.700Z,5.68
2022-11-25T19:14:08.822Z,7.43
2022-11-25T19:16:35.556Z,6.75
2022-11-25T19:19:02.171Z,7.82
2022-11-25T19:21:30.472Z,7.82
2022-11-25T19:23:56.891Z,7.90
2022-11-25T19:26:28.834Z,7.47
2022-11-25T19:28:59.047Z,6.97
2022-11-25T19:31:26.782Z,7.47
2022-11-25T19:33:53.556Z,7.60
2022-11-25T19:36:22.335Z,11.80
2022-11-25T19:38:48.708Z,12.48
2022-11-25T19:41:15.044Z,11.43
2022-11-25T19:43:41.377Z,9.45
2022-11-25T19:46:14.363Z,9.77
2022-11-25T19:48:40.830Z,8.10
2022-11-25T19:51:08.991Z,7.47
2022-11-25T19:53:35.378Z,8.88
2022-11-25T19:56:04.141Z,8.52
2022-11-25T19:58:30.855Z,10.90
2022-11-25T20:00:57.920Z,11.10
2022-11-25T20:03:26.594Z,12.57
2022-11-25T20:05:54.369Z,9.85
2022-11-25T20:08:21.834Z,10.07
2022-11-25T20:10:48.557Z,13.23
2022-11-25T20:13:15.108Z,14.00
2022-11-25T20:15:42.311Z,17.17
2022-11-25T20:18:17.790Z,22.90
2022-11-25T20:20:45.195Z,32.67
2022-11-25T20:23:11.459Z,30.02
2022-11-25T20:25:41.323Z,37.25
2022-11-25T20:28:17.845Z,32.00
2022-11-25T20:30:44.595Z,29.50
2022-11-25T20:33:11.813Z,30.75
2022-11-25T20:35:39.805Z,34.95
2022-11-25T20:38:06.629Z,37.63
2022-11-25T20:40:37.581Z,38.60
2022-11-25T20:43:03.904Z,37.13
2022-11-25T20:45:30.258Z,36.30
2022-11-25T20:47:56.769Z,35.28
2022-11-25T20:50:23.059Z,33.63
2022-11-25T20:52:50.152Z,29.30
2022-11-25T20:55:24.492Z,26.98
2022-11-25T20:57:51.908Z,25.10
2022-11-25T21:00:25.805Z,19.45
2022-11-25T21:05:18.493Z,15.05
2022-11-25T21:07:45.386Z,16.05
2022-11-25T21:10:18.060Z,20.75
2022-11-25T21:12:44.413Z,44.47
2022-11-25T21:15:15.087Z,34.55
2022-11-25T21:17:41.401Z,23.75
2022-11-25T21:20:08.136Z,18.25
2022-11-25T21:22:39.673Z,14.60
2022-11-25T21:25:10.578Z,16.40
2022-11-25T21:27:36.941Z,15.48
2022-11-25T21:30:03.601Z,22.35
2022-11-25T21:32:29.886Z,19.80
2022-11-25T21:34:56.808Z,21.90
2022-11-25T21:37:33.851Z,16.98
2022-11-25T21:40:00.298Z,19.30
2022-11-25T21:42:27.393Z,18.98
2022-11-25T21:44:54.129Z,17.17
2022-11-25T21:47:24.581Z,19.77
2022-11-25T21:49:51.140Z,20.85
2022-11-25T21:52:17.584Z,25.27
2022-11-25T21:54:44.359Z,22.95
2022-11-25T21:57:15.193Z,18.92
2022-11-25T21:59:41.547Z,17.70
2022-11-25T22:02:16.395Z,17.80
2022-11-25T22:04:42.748Z,17.08
2022-11-25T22:07:09.525Z,17.02
2022-11-25T22:09:36.281Z,16.33
2022-11-25T22:12:04.938Z,15.65
2022-11-25T22:14:39.137Z,16.40
2022-11-25T22:17:13.907Z,16.38
2022-11-25T22:19:40.254Z,18.50
2022-11-25T22:22:11.558Z,17.00
2022-11-25T22:24:38.090Z,15.60
2022-11-25T22:27:07.049Z,14.80
2022-11-25T22:29:35.493Z,15.68
2022-11-25T22:32:05.880Z,15.05
2022-11-25T22:34:34.631Z,14.68
2022-11-25T22:37:01.012Z,14.23
2022-11-25T22:39:27.463Z,15.13
2022-11-25T22:41:55.542Z,14.05
2022-11-25T22:44:24.321Z,14.02
2022-11-25T22:46:51.077Z,16.10
2022-11-25T22:49:23.414Z,15.63
2022-11-25T22:51:49.790Z,15.65
2022-11-25T22:54:16.133Z,17.20
2022-11-25T22:56:42.491Z,16.90
2022-11-25T22:59:08.788Z,19.38
2022-11-25T23:01:35.167Z,19.00
2022-11-25T23:04:01.634Z,19.10
2022-11-25T23:06:28.020Z,19.38
2022-11-25T23:08:54.458Z,20.30
2022-11-25T23:11:20.751Z,18.80
2022-11-25T23:13:48.691Z,17.73
2022-11-25T23:16:15.335Z,17.52
2022-11-25T23:18:44.645Z,17.38
2022-11-25T23:21:15.770Z,17.05
2022-11-25T23:23:42.067Z,16.58
2022-11-25T23:26:11.730Z,16.00
2022-11-25T23:28:38.105Z,17.40
2022-11-25T23:31:04.643Z,19.83
2022-11-25T23:33:36.881Z,14.70
2022-11-25T23:36:08.721Z,7.60
2022-11-25T23:38:37.717Z,6.97
2022-11-25T23:41:04.061Z,7.35
2022-11-25T23:43:30.416Z,10.20
2022-11-25T23:45:56.907Z,9.10
2022-11-25T23:48:25.958Z,7.93
2022-11-25T23:50:53.874Z,6.82
2022-11-25T23:53:29.074Z,6.03
2022-11-25T23:55:55.508Z,5.85
2022-11-25T23:58:23.107Z,5.97
